createdAt,value
2019-03-02T00:00:02.057Z,1010.9
2019-03-02T00:01:13.315Z,1010.91
2019-03-02T00:02:24.106Z,1010.87
2019-03-02T00:03:34.828Z,1010.9
2019-03-02T00:04:45.821Z,1010.91
2019-03-02T00:05:56.880Z,1010.88
2019-03-02T00:07:11.223Z,1010.92
2019-03-02T00:08:21.766Z,1010.92
2019-03-02T00:09:34.600Z,1010.91
2019-03-02T00:10:45.771Z,1010.91
2019-03-02T00:11:56.433Z,1010.89
2019-03-02T00:13:07.385Z,1010.92
2019-03-02T00:14:19.150Z,1010.94
2019-03-02T00:15:30.593Z,1010.94
2019-03-02T00:16:43.264Z,1010.95
2019-03-02T00:17:54.071Z,1010.95
2019-03-02T00:19:06.603Z,1010.93
2019-03-02T00:20:18.036Z,1010.94
2019-03-02T00:21:31.353Z,1010.95
2019-03-02T00:22:43.380Z,1010.96
2019-03-02T00:23:54.226Z,1010.98
2019-03-02T00:25:04.417Z,1010.99
2019-03-02T00:26:14.387Z,1010.94
2019-03-02T00:27:24.335Z,1010.98
2019-03-02T00:28:35.550Z,1010.98
2019-03-02T00:29:46.006Z,1010.91
2019-03-02T00:30:57.762Z,1010.89
2019-03-02T00:32:09.529Z,1010.9
2019-03-02T00:33:19.866Z,1010.91
2019-03-02T00:34:32.009Z,1010.87
2019-03-02T00:35:43.614Z,1010.92
2019-03-02T00:36:54.852Z,1010.83
2019-03-02T00:38:08.711Z,1010.84
2019-03-02T00:39:19.873Z,1010.87
2019-03-02T00:40:30.294Z,1010.81
2019-03-02T00:41:42.098Z,1010.86
2019-03-02T00:42:52.820Z,1010.84
2019-03-02T00:44:03.730Z,1010.84
2019-03-02T00:45:15.122Z,1010.86
2019-03-02T00:46:25.304Z,1010.88
2019-03-02T00:47:36.262Z,1010.89
2019-03-02T00:48:46.900Z,1010.89
2019-03-02T00:50:00.513Z,1010.84
2019-03-02T00:51:11.164Z,1010.86
2019-03-02T00:52:23.391Z,1010.89
2019-03-02T00:53:35.453Z,1010.88
2019-03-02T00:54:46.260Z,1010.86
2019-03-02T00:56:07.725Z,1010.89
2019-03-02T00:57:18.594Z,1010.91
2019-03-02T00:58:29.105Z,1010.87
2019-03-02T00:59:40.350Z,1010.86
2019-03-02T01:00:53.286Z,1010.93
2019-03-02T01:02:04.322Z,1010.97
2019-03-02T01:03:15.579Z,1010.94
2019-03-02T01:04:25.976Z,1010.97
2019-03-02T01:05:37.194Z,1010.86
2019-03-02T01:06:48.694Z,1010.86
2019-03-02T01:07:59.681Z,1010.87
2019-03-02T01:09:11.647Z,1010.88
2019-03-02T01:10:23.542Z,1010.82
2019-03-02T01:11:34.154Z,1010.8
2019-03-02T01:12:45.267Z,1010.79
2019-03-02T01:13:56.809Z,1010.75
2019-03-02T01:15:08.391Z,1010.8
2019-03-02T01:16:19.917Z,1010.8
2019-03-02T01:17:30.741Z,1010.81
2019-03-02T01:18:42.366Z,1010.84
2019-03-02T01:19:52.565Z,1010.8
2019-03-02T01:21:04.951Z,1010.82
2019-03-02T01:22:16.519Z,1010.85
2019-03-02T01:23:27.444Z,1010.85
2019-03-02T01:24:38.876Z,1010.82
2019-03-02T01:25:49.736Z,1010.83
2019-03-02T01:27:00.587Z,1010.8
2019-03-02T01:28:10.660Z,1010.8
2019-03-02T01:29:20.668Z,1010.81
2019-03-02T01:30:30.922Z,1010.79
2019-03-02T01:31:41.756Z,1010.79
2019-03-02T01:32:52.598Z,1010.8
2019-03-02T01:34:04.432Z,1010.79
2019-03-02T01:35:16.374Z,1010.77
2019-03-02T01:36:28.610Z,1010.73
2019-03-02T01:37:43.849Z,1010.72
2019-03-02T01:38:54.879Z,1010.72
2019-03-02T01:40:06.006Z,1010.73
2019-03-02T01:41:17.656Z,1010.73
2019-03-02T01:42:29.675Z,1010.74
2019-03-02T01:43:40.301Z,1010.74
2019-03-02T01:44:51.622Z,1010.74
2019-03-02T01:46:03.262Z,1010.74
2019-03-02T01:47:15.728Z,1010.7
2019-03-02T01:48:27.885Z,1010.7
2019-03-02T01:49:38.119Z,1010.7
2019-03-02T01:50:48.669Z,1010.68
2019-03-02T01:51:59.104Z,1010.69
2019-03-02T01:53:09.859Z,1010.68
2019-03-02T01:54:21.211Z,1010.71
2019-03-02T01:55:31.288Z,1010.7
2019-03-02T01:56:42.619Z,1010.66
2019-03-02T01:57:53.191Z,1010.65
2019-03-02T01:59:03.896Z,1010.67
2019-03-02T02:00:14.562Z,1010.64
2019-03-02T02:01:25.763Z,1010.69
2019-03-02T02:02:36.061Z,1010.64
2019-03-02T02:03:46.968Z,1010.62
2019-03-02T02:04:57.612Z,1010.64
2019-03-02T02:06:08.741Z,1010.6
2019-03-02T02:07:19.344Z,1010.6
2019-03-02T02:08:29.753Z,1010.61
2019-03-02T02:09:40.509Z,1010.56
2019-03-02T02:10:50.685Z,1010.57
2019-03-02T02:12:00.377Z,1010.55
2019-03-02T02:13:10.352Z,1010.59
2019-03-02T02:14:20.372Z,1010.58
2019-03-02T02:15:30.461Z,1010.57
2019-03-02T02:16:41.739Z,1010.54
2019-03-02T02:17:52.915Z,1010.56
2019-03-02T02:19:03.352Z,1010.53
2019-03-02T02:20:14.503Z,1010.55
2019-03-02T02:21:26.521Z,1010.5
2019-03-02T02:22:37.915Z,1010.51
2019-03-02T02:23:49.711Z,1010.47
2019-03-02T02:25:00.390Z,1010.46
2019-03-02T02:26:11.252Z,1010.43
2019-03-02T02:27:22.411Z,1010.39
2019-03-02T02:28:33.492Z,1010.39
2019-03-02T02:29:43.667Z,1010.36
2019-03-02T02:30:54.310Z,1010.34
2019-03-02T02:32:12.617Z,1010.29
2019-03-02T02:33:31.067Z,1010.32
2019-03-02T02:34:47.669Z,1010.23
2019-03-02T02:36:05.891Z,1010.25
2019-03-02T02:37:23.391Z,1010.27
2019-03-02T02:38:41.667Z,1010.25
2019-03-02T02:39:59.308Z,1010.22
2019-03-02T02:41:21.892Z,1010.19
2019-03-02T02:42:32.531Z,1010.21
2019-03-02T02:43:48.296Z,1010.2
2019-03-02T02:45:05.896Z,1010.15
2019-03-02T02:46:21.845Z,1010.2
2019-03-02T02:47:39.861Z,1010.2
2019-03-02T02:48:59.754Z,1010.24
2019-03-02T02:50:15.232Z,1010.19
2019-03-02T02:51:34.442Z,1010.2
2019-03-02T02:52:51.724Z,1010.24
2019-03-02T02:54:09.236Z,1010.19
2019-03-02T02:55:25.844Z,1010.15
2019-03-02T02:56:43.246Z,1010.22
2019-03-02T02:57:59.456Z,1010.15
2019-03-02T02:59:17.335Z,1010.17
2019-03-02T03:00:27.316Z,1010.15
2019-03-02T03:01:38.402Z,1010.19
2019-03-02T03:02:48.394Z,1010.11
2019-03-02T03:03:59.339Z,1010.09
2019-03-02T03:05:09.977Z,1010.1
2019-03-02T03:06:23.059Z,1010.12
2019-03-02T03:07:38.032Z,1010.14
2019-03-02T03:08:58.830Z,1010.13
2019-03-02T03:10:16.651Z,1010.12
2019-03-02T03:11:33.386Z,1010.1
2019-03-02T03:12:51.175Z,1010.1
2019-03-02T03:14:09.592Z,1010.13
2019-03-02T03:15:26.898Z,1010.15
2019-03-02T03:16:44.219Z,1010.13
2019-03-02T03:17:59.452Z,1010.12
2019-03-02T03:19:17.903Z,1010.11
2019-03-02T03:20:35.689Z,1010.07
2019-03-02T03:21:53.729Z,1010.08
2019-03-02T03:23:12.078Z,1010.07
2019-03-02T03:24:29.440Z,1010.09
2019-03-02T03:25:45.420Z,1010.07
2019-03-02T03:27:03.731Z,1010.08
2019-03-02T03:28:18.741Z,1010.08
2019-03-02T03:29:35.547Z,1010.1
2019-03-02T03:30:52.855Z,1010.09
2019-03-02T03:32:08.887Z,1010.13
2019-03-02T03:33:21.707Z,1010.1
2019-03-02T03:34:48.027Z,1010.12
2019-03-02T03:35:57.826Z,1010.08
2019-03-02T03:37:08.250Z,1010.1
2019-03-02T03:38:24.792Z,1010.09
2019-03-02T03:39:37.083Z,1010.08
2019-03-02T03:40:51.766Z,1010.04
2019-03-02T03:42:09.739Z,1010.04
2019-03-02T03:43:27.738Z,1010.03
2019-03-02T03:44:47.382Z,1009.98
2019-03-02T03:46:04.110Z,1009.97
2019-03-02T03:47:22.097Z,1009.99
2019-03-02T03:48:34.726Z,1010.04
2019-03-02T03:49:44.672Z,1010
2019-03-02T03:50:54.166Z,1010
2019-03-02T03:52:08.988Z,1010.01
2019-03-02T03:53:21.667Z,1010.03
2019-03-02T03:54:40.830Z,1010.09
2019-03-02T03:55:53.240Z,1010.09
2019-03-02T03:57:11.118Z,1010.06
2019-03-02T03:58:26.851Z,1010.08
2019-03-02T03:59:43.051Z,1010.09
2019-03-02T04:01:01.419Z,1010.12
2019-03-02T04:02:19.994Z,1010.1
2019-03-02T04:03:37.418Z,1010.08
2019-03-02T04:04:52.514Z,1010.05
2019-03-02T04:06:10.915Z,1010.09
2019-03-02T04:07:27.635Z,1010.07
2019-03-02T04:08:37.593Z,1010.06
2019-03-02T04:09:48.270Z,1010.07
2019-03-02T04:11:00.075Z,1010.04
2019-03-02T04:12:14.112Z,1010.05
2019-03-02T04:13:29.836Z,1010.04
2019-03-02T04:14:49.735Z,1010.06
2019-03-02T04:16:06.245Z,1010.04
2019-03-02T04:17:22.942Z,1010.04
2019-03-02T04:18:40.915Z,1010.04
2019-03-02T04:19:58.931Z,1010
2019-03-02T04:21:16.709Z,1010.01
2019-03-02T04:22:35.191Z,1010.06
2019-03-02T04:23:50.214Z,1010.04
2019-03-02T04:25:12.904Z,1010.06
2019-03-02T04:26:31.285Z,1010
2019-03-02T04:27:44.478Z,1010.03
2019-03-02T04:29:08.683Z,1010.05
2019-03-02T04:30:30.257Z,1010.04
2019-03-02T04:31:43.838Z,1009.99
2019-03-02T04:33:01.634Z,1009.99
2019-03-02T04:34:20.132Z,1010.03
2019-03-02T04:35:33.636Z,1010.04
2019-03-02T04:36:47.244Z,1010.05
2019-03-02T04:38:00.590Z,1010.02
2019-03-02T04:39:13.567Z,1010.04
2019-03-02T04:40:27.641Z,1010.01
2019-03-02T04:41:39.497Z,1010.02
2019-03-02T04:42:50.090Z,1010.07
2019-03-02T04:44:00.106Z,1010.09
2019-03-02T04:45:10.042Z,1010.04
2019-03-02T04:46:19.984Z,1010.06
2019-03-02T04:47:29.660Z,1010.04
2019-03-02T04:48:40.066Z,1010.02
2019-03-02T04:49:51.353Z,1009.93
2019-03-02T04:51:02.547Z,1009.96
2019-03-02T04:52:14.500Z,1010.01
2019-03-02T04:53:25.177Z,1009.97
2019-03-02T04:54:37.610Z,1009.98
2019-03-02T04:55:48.507Z,1010.04
2019-03-02T04:56:59.736Z,1009.96
2019-03-02T04:58:11.889Z,1010.02
2019-03-02T04:59:22.990Z,1010
2019-03-02T05:00:33.065Z,1010.01
2019-03-02T05:01:43.819Z,1010.02
2019-03-02T05:02:56.143Z,1009.96
2019-03-02T05:04:05.884Z,1010
2019-03-02T05:05:15.820Z,1010
2019-03-02T05:06:25.761Z,1009.98
2019-03-02T05:07:35.682Z,1009.95
2019-03-02T05:08:45.466Z,1009.97
2019-03-02T05:09:55.431Z,1010.03
2019-03-02T05:11:05.455Z,1010
2019-03-02T05:12:15.523Z,1009.99
2019-03-02T05:13:28.271Z,1009.94
2019-03-02T05:14:40.147Z,1009.95
2019-03-02T05:15:52.279Z,1009.95
2019-03-02T05:17:03.380Z,1009.94
2019-03-02T05:18:18.083Z,1009.97
2019-03-02T05:19:29.084Z,1009.95
2019-03-02T05:20:41.000Z,1009.93
2019-03-02T05:21:51.129Z,1009.9
2019-03-02T05:23:00.813Z,1009.9
2019-03-02T05:24:10.750Z,1009.92
2019-03-02T05:25:20.680Z,1009.89
2019-03-02T05:26:30.615Z,1009.89
2019-03-02T05:27:40.568Z,1009.94
2019-03-02T05:28:50.249Z,1009.91
2019-03-02T05:29:59.930Z,1009.9
2019-03-02T05:31:09.874Z,1009.86
2019-03-02T05:32:21.512Z,1009.9
2019-03-02T05:33:31.478Z,1009.95
2019-03-02T05:34:41.167Z,1009.94
2019-03-02T05:35:51.759Z,1009.99
2019-03-02T05:37:02.798Z,1009.93
2019-03-02T05:38:15.139Z,1009.97
2019-03-02T05:39:25.043Z,1009.94
2019-03-02T05:40:34.746Z,1009.94
2019-03-02T05:41:44.430Z,1009.96
2019-03-02T05:42:56.069Z,1009.94
2019-03-02T05:44:05.778Z,1009.95
2019-03-02T05:45:15.498Z,1009.94
2019-03-02T05:46:29.861Z,1009.97
2019-03-02T05:47:39.551Z,1009.98
2019-03-02T05:48:49.274Z,1010.02
2019-03-02T05:49:58.707Z,1010.04
2019-03-02T05:51:08.146Z,1009.99
2019-03-02T05:52:18.693Z,1010.03
2019-03-02T05:53:30.218Z,1010.03
2019-03-02T05:54:41.502Z,1010.06
2019-03-02T05:55:53.592Z,1010.06
2019-03-02T05:57:04.282Z,1010.06
2019-03-02T05:58:15.786Z,1010.06
2019-03-02T05:59:27.825Z,1010.01
2019-03-02T06:00:38.880Z,1010.05
2019-03-02T06:01:48.674Z,1010.08
2019-03-02T06:02:58.477Z,1010.08
2019-03-02T06:04:08.432Z,1010.03
2019-03-02T06:05:22.617Z,1010.1
2019-03-02T06:06:32.308Z,1010.09
2019-03-02T06:07:42.065Z,1010.07
2019-03-02T06:08:54.411Z,1010.1
2019-03-02T06:10:04.382Z,1010.1
2019-03-02T06:11:16.557Z,1010.1
2019-03-02T06:12:26.005Z,1010.1
2019-03-02T06:13:35.943Z,1010.07
2019-03-02T06:14:45.903Z,1010.05
2019-03-02T06:15:55.854Z,1010.03
2019-03-02T06:17:05.800Z,1010.03
2019-03-02T06:18:15.497Z,1009.97
2019-03-02T06:19:25.419Z,1009.99
2019-03-02T06:20:36.538Z,1010
2019-03-02T06:21:47.545Z,1010.02
2019-03-02T06:22:57.235Z,1010.03
2019-03-02T06:24:07.182Z,1010.06
2019-03-02T06:25:20.984Z,1010.1
2019-03-02T06:26:31.685Z,1010.1
2019-03-02T06:27:46.883Z,1010.1
2019-03-02T06:28:57.807Z,1010.1
2019-03-02T06:30:08.325Z,1010.13
2019-03-02T06:31:19.079Z,1010.14
2019-03-02T06:32:29.835Z,1010.13
2019-03-02T06:33:44.023Z,1010.13
2019-03-02T06:34:55.751Z,1010.11
2019-03-02T06:36:08.632Z,1010.14
2019-03-02T06:37:19.912Z,1010.15
2019-03-02T06:38:32.079Z,1010.15
2019-03-02T06:39:44.402Z,1010.2
2019-03-02T06:40:58.026Z,1010.23
2019-03-02T06:42:09.790Z,1010.24
2019-03-02T06:43:21.725Z,1010.22
2019-03-02T06:44:34.112Z,1010.23
2019-03-02T06:45:44.387Z,1010.23
2019-03-02T06:46:54.646Z,1010.19
2019-03-02T06:48:09.567Z,1010.2
2019-03-02T06:49:19.870Z,1010.24
2019-03-02T06:50:31.684Z,1010.24
2019-03-02T06:51:43.668Z,1010.27
2019-03-02T06:52:57.840Z,1010.24
2019-03-02T06:54:12.696Z,1010.32
2019-03-02T06:55:25.434Z,1010.3
2019-03-02T06:56:35.871Z,1010.3
2019-03-02T06:57:57.803Z,1010.29
2019-03-02T06:59:07.736Z,1010.25
2019-03-02T07:00:17.680Z,1010.29
2019-03-02T07:01:27.132Z,1010.3
2019-03-02T07:02:37.060Z,1010.29
2019-03-02T07:03:46.989Z,1010.25
2019-03-02T07:04:58.014Z,1010.22
2019-03-02T07:06:08.499Z,1010.22
2019-03-02T07:07:21.717Z,1010.25
2019-03-02T07:08:32.704Z,1010.2
2019-03-02T07:09:45.216Z,1010.2
2019-03-02T07:10:57.873Z,1010.21
2019-03-02T07:12:09.413Z,1010.21
2019-03-02T07:13:21.133Z,1010.26
2019-03-02T07:14:32.253Z,1010.3
2019-03-02T07:15:43.672Z,1010.32
2019-03-02T07:16:55.866Z,1010.31
2019-03-02T07:18:07.787Z,1010.36
2019-03-02T07:19:17.859Z,1010.35
2019-03-02T07:20:28.243Z,1010.37
2019-03-02T07:21:41.440Z,1010.31
2019-03-02T07:22:52.383Z,1010.33
2019-03-02T07:24:02.211Z,1010.34
2019-03-02T07:25:11.901Z,1010.3
2019-03-02T07:26:22.331Z,1010.32
2019-03-02T07:27:32.275Z,1010.26
2019-03-02T07:28:42.962Z,1010.3
2019-03-02T07:29:53.538Z,1010.31
2019-03-02T07:31:03.729Z,1010.28
2019-03-02T07:32:13.672Z,1010.28
2019-03-02T07:33:23.655Z,1010.24
2019-03-02T07:34:33.093Z,1010.26
2019-03-02T07:35:46.665Z,1010.29
2019-03-02T07:37:00.902Z,1010.28
2019-03-02T07:38:16.838Z,1010.28
2019-03-02T07:39:28.682Z,1010.28
2019-03-02T07:40:45.419Z,1010.25
2019-03-02T07:41:57.856Z,1010.32
2019-03-02T07:43:09.639Z,1010.29
2019-03-02T07:44:22.212Z,1010.27
2019-03-02T07:45:34.718Z,1010.27
2019-03-02T07:46:47.866Z,1010.23
2019-03-02T07:48:00.103Z,1010.19
2019-03-02T07:49:13.002Z,1010.16
2019-03-02T07:50:25.552Z,1010.22
2019-03-02T07:51:37.823Z,1010.25
2019-03-02T07:52:49.649Z,1010.28
2019-03-02T07:54:02.019Z,1010.33
2019-03-02T07:55:14.631Z,1010.38
2019-03-02T07:56:29.528Z,1010.33
2019-03-02T07:57:40.579Z,1010.36
2019-03-02T07:58:51.804Z,1010.31
2019-03-02T08:00:05.427Z,1010.29
2019-03-02T08:01:16.618Z,1010.33
2019-03-02T08:02:29.494Z,1010.3
2019-03-02T08:03:39.694Z,1010.34
2019-03-02T08:04:49.648Z,1010.3
2019-03-02T08:06:01.261Z,1010.32
2019-03-02T08:07:11.383Z,1010.3
2019-03-02T08:08:21.068Z,1010.3
2019-03-02T08:09:30.272Z,1010.26
2019-03-02T08:10:39.896Z,1010.33
2019-03-02T08:11:49.977Z,1010.29
2019-03-02T08:13:01.626Z,1010.29
2019-03-02T08:14:12.254Z,1010.2
2019-03-02T08:15:24.140Z,1010.23
2019-03-02T08:16:37.671Z,1010.22
2019-03-02T08:17:48.983Z,1010.24
2019-03-02T08:19:00.448Z,1010.22
2019-03-02T08:20:11.088Z,1010.22
2019-03-02T08:21:24.985Z,1010.19
2019-03-02T08:22:38.807Z,1010.18
2019-03-02T08:23:51.570Z,1010.2
2019-03-02T08:25:01.501Z,1010.19
2019-03-02T08:26:11.449Z,1010.2
2019-03-02T08:27:23.277Z,1010.19
2019-03-02T08:28:37.559Z,1010.2
2019-03-02T08:29:53.782Z,1010.2
2019-03-02T08:31:05.462Z,1010.21
2019-03-02T08:32:17.609Z,1010.21
2019-03-02T08:33:30.574Z,1010.23
2019-03-02T08:34:50.838Z,1010.2
2019-03-02T08:36:00.293Z,1010.18
2019-03-02T08:37:16.934Z,1010.17
2019-03-02T08:38:30.146Z,1010.2
2019-03-02T08:39:42.700Z,1010.17
2019-03-02T08:40:56.194Z,1010.18
2019-03-02T08:42:08.753Z,1010.17
2019-03-02T08:43:20.429Z,1010.17
2019-03-02T08:44:30.115Z,1010.12
2019-03-02T08:45:40.060Z,1010.14
2019-03-02T08:46:49.754Z,1010.13
2019-03-02T08:47:59.700Z,1010.15
2019-03-02T08:49:09.857Z,1010.16
2019-03-02T08:50:19.833Z,1010.2
2019-03-02T08:51:29.542Z,1010.18
2019-03-02T08:52:39.490Z,1010.2
2019-03-02T08:53:49.197Z,1010.23
2019-03-02T08:54:58.892Z,1010.19
2019-03-02T08:56:11.834Z,1010.2
2019-03-02T08:57:23.066Z,1010.17
2019-03-02T08:58:33.284Z,1010.2
2019-03-02T08:59:43.232Z,1010.18
2019-03-02T09:00:52.925Z,1010.21
2019-03-02T09:02:02.629Z,1010.22
2019-03-02T09:03:12.629Z,1010.2
2019-03-02T09:04:22.323Z,1010.17
2019-03-02T09:05:43.755Z,1010.21
2019-03-02T09:07:00.828Z,1010.22
2019-03-02T09:08:14.428Z,1010.23
2019-03-02T09:09:24.146Z,1010.24
2019-03-02T09:10:34.097Z,1010.22
2019-03-02T09:11:46.411Z,1010.19
2019-03-02T09:12:58.601Z,1010.15
2019-03-02T09:14:09.670Z,1010.2
2019-03-02T09:15:25.615Z,1010.12
2019-03-02T09:16:38.492Z,1010.14
2019-03-02T09:17:53.696Z,1010.09
2019-03-02T09:19:05.509Z,1010.16
2019-03-02T09:20:17.391Z,1010.15
2019-03-02T09:21:27.374Z,1010.2
2019-03-02T09:22:37.058Z,1010.18
2019-03-02T09:23:47.005Z,1010.15
2019-03-02T09:24:59.334Z,1010.17
2019-03-02T09:26:09.057Z,1010.2
2019-03-02T09:27:20.232Z,1010.19
2019-03-02T09:28:30.667Z,1010.19
2019-03-02T09:29:40.616Z,1010.19
2019-03-02T09:30:51.986Z,1010.19
2019-03-02T09:32:06.909Z,1010.17
2019-03-02T09:33:19.500Z,1010.19
2019-03-02T09:34:36.943Z,1010.21
2019-03-02T09:35:54.741Z,1010.23
2019-03-02T09:37:06.984Z,1010.22
2019-03-02T09:38:20.792Z,1010.25
2019-03-02T09:39:31.337Z,1010.26
2019-03-02T09:40:45.783Z,1010.26
2019-03-02T09:41:57.979Z,1010.27
2019-03-02T09:43:09.229Z,1010.27
2019-03-02T09:44:21.576Z,1010.23
2019-03-02T09:45:33.341Z,1010.23
2019-03-02T09:46:45.361Z,1010.19
2019-03-02T09:47:55.378Z,1010.19
2019-03-02T09:49:07.226Z,1010.19
2019-03-02T09:50:17.326Z,1010.22
2019-03-02T09:51:29.093Z,1010.23
2019-03-02T09:52:40.640Z,1010.3
2019-03-02T09:53:51.008Z,1010.21
2019-03-02T09:55:00.957Z,1010.25
2019-03-02T09:56:10.944Z,1010.25
2019-03-02T09:57:21.347Z,1010.25
2019-03-02T09:58:32.469Z,1010.21
2019-03-02T09:59:45.369Z,1010.23
2019-03-02T10:00:56.787Z,1010.2
2019-03-02T10:02:14.346Z,1010.21
2019-03-02T10:03:26.688Z,1010.31
2019-03-02T10:04:39.332Z,1010.28
2019-03-02T10:05:49.838Z,1010.3
2019-03-02T10:07:01.921Z,1010.28
2019-03-02T10:08:13.214Z,1010.26
2019-03-02T10:09:24.868Z,1010.28
2019-03-02T10:10:36.683Z,1010.29
2019-03-02T10:11:46.643Z,1010.28
2019-03-02T10:12:56.092Z,1010.26
2019-03-02T10:14:05.794Z,1010.33
2019-03-02T10:15:15.740Z,1010.29
2019-03-02T10:16:26.839Z,1010.23
2019-03-02T10:17:38.309Z,1010.32
2019-03-02T10:18:49.609Z,1010.24
2019-03-02T10:20:00.814Z,1010.22
2019-03-02T10:21:14.552Z,1010.23
2019-03-02T10:22:24.262Z,1010.28
2019-03-02T10:23:38.892Z,1010.28
2019-03-02T10:24:49.735Z,1010.29
2019-03-02T10:26:03.719Z,1010.37
2019-03-02T10:27:17.059Z,1010.33
2019-03-02T10:28:29.915Z,1010.33
2019-03-02T10:29:44.204Z,1010.26
2019-03-02T10:30:55.523Z,1010.3
2019-03-02T10:32:09.033Z,1010.3
2019-03-02T10:33:20.086Z,1010.27
2019-03-02T10:34:33.279Z,1010.26
2019-03-02T10:35:49.558Z,1010.31
2019-03-02T10:37:03.496Z,1010.35
2019-03-02T10:38:18.865Z,1010.33
2019-03-02T10:39:32.641Z,1010.34
2019-03-02T10:40:44.988Z,1010.31
2019-03-02T10:41:56.687Z,1010.3
2019-03-02T10:43:10.626Z,1010.25
2019-03-02T10:44:21.235Z,1010.3
2019-03-02T10:45:31.123Z,1010.29
2019-03-02T10:46:41.134Z,1010.26
2019-03-02T10:47:51.096Z,1010.28
2019-03-02T10:49:01.807Z,1010.29
2019-03-02T10:50:19.505Z,1010.3
2019-03-02T10:51:33.874Z,1010.34
2019-03-02T10:52:45.732Z,1010.3
2019-03-02T10:53:59.549Z,1010.29
2019-03-02T10:55:12.153Z,1010.32
2019-03-02T10:56:24.685Z,1010.26
2019-03-02T10:57:34.542Z,1010.25
2019-03-02T10:58:44.491Z,1010.29
2019-03-02T10:59:54.181Z,1010.27
2019-03-02T11:01:07.174Z,1010.27
2019-03-02T11:02:20.027Z,1010.24
2019-03-02T11:03:31.658Z,1010.31
2019-03-02T11:04:44.317Z,1010.29
2019-03-02T11:05:56.753Z,1010.29
2019-03-02T11:07:09.060Z,1010.32
2019-03-02T11:08:21.689Z,1010.34
2019-03-02T11:09:36.314Z,1010.3
2019-03-02T11:10:48.642Z,1010.3
2019-03-02T11:12:02.765Z,1010.29
2019-03-02T11:13:15.857Z,1010.26
2019-03-02T11:14:27.669Z,1010.25
2019-03-02T11:15:43.439Z,1010.19
2019-03-02T11:16:55.012Z,1010.17
2019-03-02T11:18:06.831Z,1010.25
2019-03-02T11:19:16.812Z,1010.26
2019-03-02T11:20:26.772Z,1010.26
2019-03-02T11:21:36.454Z,1010.26
2019-03-02T11:22:46.130Z,1010.2
2019-03-02T11:23:57.523Z,1010.21
2019-03-02T11:25:07.614Z,1010.25
2019-03-02T11:26:17.560Z,1010.19
2019-03-02T11:27:27.518Z,1010.26
2019-03-02T11:28:37.452Z,1010.33
2019-03-02T11:29:50.888Z,1010.37
2019-03-02T11:31:01.169Z,1010.28
2019-03-02T11:32:11.115Z,1010.28
2019-03-02T11:33:27.430Z,1010.27
2019-03-02T11:34:38.759Z,1010.27
2019-03-02T11:35:48.708Z,1010.3
2019-03-02T11:36:58.657Z,1010.25
2019-03-02T11:38:08.604Z,1010.24
2019-03-02T11:39:18.567Z,1010.22
2019-03-02T11:40:29.180Z,1010.24
2019-03-02T11:41:40.570Z,1010.25
2019-03-02T11:42:50.263Z,1010.22
2019-03-02T11:44:02.340Z,1010.17
2019-03-02T11:45:11.864Z,1010.15
2019-03-02T11:46:22.234Z,1010.17
2019-03-02T11:47:32.943Z,1010.14
2019-03-02T11:48:47.665Z,1010.17
2019-03-02T11:50:04.355Z,1010.12
2019-03-02T11:51:17.170Z,1010.07
2019-03-02T11:52:29.991Z,1010.05
2019-03-02T11:53:43.867Z,1009.98
2019-03-02T11:55:00.797Z,1010.05
2019-03-02T11:56:23.781Z,1010.03
2019-03-02T11:57:35.087Z,1010.06
2019-03-02T11:58:45.035Z,1010.02
2019-03-02T11:59:54.981Z,1009.98
2019-03-02T12:01:07.354Z,1009.99
2019-03-02T12:02:19.889Z,1009.92
2019-03-02T12:03:31.534Z,1010.03
2019-03-02T12:04:44.291Z,1010.03
2019-03-02T12:05:57.370Z,1009.96
2019-03-02T12:07:13.145Z,1009.99
2019-03-02T12:08:23.477Z,1009.96
2019-03-02T12:09:33.531Z,1009.97
2019-03-02T12:10:42.969Z,1009.98
2019-03-02T12:11:52.920Z,1009.96
2019-03-02T12:13:03.765Z,1009.95
2019-03-02T12:14:13.798Z,1010.01
2019-03-02T12:15:24.877Z,1009.91
2019-03-02T12:16:35.001Z,1009.95
2019-03-02T12:17:45.905Z,1009.96
2019-03-02T12:18:58.228Z,1009.92
2019-03-02T12:20:10.446Z,1009.92
2019-03-02T12:21:22.166Z,1009.95
2019-03-02T12:22:34.334Z,1009.92
2019-03-02T12:23:44.463Z,1009.87
2019-03-02T12:24:54.648Z,1009.9
2019-03-02T12:26:07.775Z,1009.84
2019-03-02T12:27:21.881Z,1009.85
2019-03-02T12:28:32.931Z,1009.85
2019-03-02T12:29:45.963Z,1009.87
2019-03-02T12:30:56.859Z,1009.85
2019-03-02T12:32:07.402Z,1009.82
2019-03-02T12:33:20.493Z,1009.77
2019-03-02T12:34:34.141Z,1009.79
2019-03-02T12:35:44.402Z,1009.82
2019-03-02T12:36:54.513Z,1009.77
2019-03-02T12:38:07.081Z,1009.78
2019-03-02T12:39:23.816Z,1009.71
2019-03-02T12:40:36.207Z,1009.7
2019-03-02T12:41:48.793Z,1009.71
2019-03-02T12:43:04.008Z,1009.72
2019-03-02T12:44:17.335Z,1009.67
2019-03-02T12:45:29.920Z,1009.67
2019-03-02T12:46:41.275Z,1009.67
2019-03-02T12:47:59.930Z,1009.65
2019-03-02T12:49:10.901Z,1009.63
2019-03-02T12:50:23.049Z,1009.72
2019-03-02T12:51:35.086Z,1009.69
2019-03-02T12:52:48.023Z,1009.7
2019-03-02T12:54:00.789Z,1009.67
2019-03-02T12:55:12.382Z,1009.63
2019-03-02T12:56:29.021Z,1009.65
2019-03-02T12:57:45.374Z,1009.66
2019-03-02T12:59:00.741Z,1009.6
2019-03-02T13:00:11.602Z,1009.59
2019-03-02T13:01:21.556Z,1009.6
2019-03-02T13:02:34.488Z,1009.54
2019-03-02T13:03:48.487Z,1009.47
2019-03-02T13:04:58.187Z,1009.58
2019-03-02T13:06:07.927Z,1009.57
2019-03-02T13:07:17.902Z,1009.62
2019-03-02T13:08:27.586Z,1009.59
2019-03-02T13:09:40.994Z,1009.59
2019-03-02T13:10:53.360Z,1009.58
2019-03-02T13:12:05.564Z,1009.51
2019-03-02T13:13:20.628Z,1009.52
2019-03-02T13:14:32.135Z,1009.51
2019-03-02T13:15:45.374Z,1009.56
2019-03-02T13:16:59.145Z,1009.5
2019-03-02T13:18:13.928Z,1009.44
2019-03-02T13:19:26.721Z,1009.46
2019-03-02T13:20:39.292Z,1009.57
2019-03-02T13:21:51.578Z,1009.52
2019-03-02T13:23:02.972Z,1009.55
2019-03-02T13:24:14.759Z,1009.6
2019-03-02T13:25:30.067Z,1009.49
2019-03-02T13:26:41.772Z,1009.46
2019-03-02T13:27:56.726Z,1009.42
2019-03-02T13:29:12.890Z,1009.41
2019-03-02T13:30:25.669Z,1009.39
2019-03-02T13:31:39.946Z,1009.42
2019-03-02T13:32:52.413Z,1009.48
2019-03-02T13:34:03.718Z,1009.4
2019-03-02T13:35:19.814Z,1009.35
2019-03-02T13:36:30.863Z,1009.43
2019-03-02T13:37:44.553Z,1009.41
2019-03-02T13:39:01.223Z,1009.39
2019-03-02T13:40:26.245Z,1009.44
2019-03-02T13:41:39.018Z,1009.28
2019-03-02T13:42:52.136Z,1009.29
2019-03-02T13:44:07.499Z,1009.27
2019-03-02T13:45:19.056Z,1009.35
2019-03-02T13:46:30.988Z,1009.4
2019-03-02T13:47:44.840Z,1009.22
2019-03-02T13:48:58.092Z,1009.28
2019-03-02T13:50:09.969Z,1009.32
2019-03-02T13:51:25.855Z,1009.25
2019-03-02T13:52:43.379Z,1009.2
2019-03-02T13:53:58.342Z,1009.26
2019-03-02T13:55:13.382Z,1009.19
2019-03-02T13:56:26.333Z,1009.26
2019-03-02T13:57:37.887Z,1009.22
2019-03-02T13:58:50.984Z,1009.19
2019-03-02T14:00:03.284Z,1009.16
2019-03-02T14:01:15.603Z,1009.19
2019-03-02T14:02:30.663Z,1009.18
2019-03-02T14:03:46.855Z,1009.16
2019-03-02T14:05:04.608Z,1009.08
2019-03-02T14:06:18.144Z,1009.07
2019-03-02T14:07:31.112Z,1009.11
2019-03-02T14:08:43.336Z,1009.07
2019-03-02T14:09:53.574Z,1009.07
2019-03-02T14:11:03.532Z,1009.08
2019-03-02T14:12:15.826Z,1009.11
2019-03-02T14:13:30.507Z,1009.11
2019-03-02T14:14:40.957Z,1009.16
2019-03-02T14:15:55.260Z,1009.05
2019-03-02T14:17:08.200Z,1009.07
2019-03-02T14:18:19.546Z,1009.05
2019-03-02T14:19:33.927Z,1009.05
2019-03-02T14:20:51.366Z,1009.01
2019-03-02T14:22:05.240Z,1009.03
2019-03-02T14:23:17.888Z,1009.04
2019-03-02T14:24:37.398Z,1008.99
2019-03-02T14:25:56.046Z,1009.04
2019-03-02T14:27:07.739Z,1008.99
2019-03-02T14:28:17.700Z,1008.97
2019-03-02T14:29:30.913Z,1008.98
2019-03-02T14:30:43.482Z,1009.03
2019-03-02T14:31:57.758Z,1008.98
2019-03-02T14:33:10.708Z,1008.93
2019-03-02T14:34:20.162Z,1008.97
2019-03-02T14:35:30.120Z,1008.91
2019-03-02T14:36:42.252Z,1008.95
2019-03-02T14:37:51.986Z,1009
2019-03-02T14:39:02.745Z,1008.94
2019-03-02T14:40:14.559Z,1008.97